Beresford, South Dakota
Current Conditions -  °F | °C
As of 9:55 AM on Thursday 30 Oct 2014 (Local Time) from KYKN Reporting Station
Clear Clear  
Wind Chill: 39°   Ceiling: Unl
Heat Index: 46°   Visibility: 10mi
Dew Point: 37°   Wind: 18mph
Humidity: 71%   Direction: 310°NW
Pressure: 30.1"   Gusts: 24mph
Location:  43.08°N, 96.77°W
Report Text: KYKN 301455Z AUTO 31016G21KT 10SM CLR 08/03 A3010 RMK AO1 52024
Loading
Personal Weather Stations






























Interactive Weather Map
Tropical Storm Tracking
New forecast layout! Learn more

10-Day Weather Forecast

Advertisements
Track Severe Weather on mobile